Terminal Aerodrome Forecast
Issued by NWS Charleston, SC

Home | Current Version | Previous Version | Text Only | Print | Product List | Glossary On
Versions: 1 2 3 4 5 6 7 8 9 10 11 12 13 14 15 16 17 18 19 20 21 22 23 24 25 26
000
FTUS42 KCHS 152300
TAFSAV
TAF
KSAV 152329Z 1600/1624 VRB02KT P6SM FEW006 SCT040 BKN100
     FM160900 VRB02KT 3SM BR SCT003 BKN011
     FM161400 32005KT P6SM SCT015 BKN040
     FM161700 VRB06KT P6SM VCTS SCT025CB BKN040
      TEMPO 1618/1622 4SM TSRA BR SCT015 BKN025CB=

USA.gov is the U.S. government's official web portal to all federal, state and local government web resources and services.